sensor_id;sensor_type;location;lat;lon;timestamp;P1;durP1;ratioP1;P2;durP2;ratioP2
58950;SDS011;44730;53.158;6.398;2022-12-10T00:01:35;49.85;;;24.95;;
58950;SDS011;44730;53.158;6.398;2022-12-10T00:04:02;48.33;;;25.05;;
58950;SDS011;44730;53.158;6.398;2022-12-10T00:06:31;46.53;;;24.65;;
58950;SDS011;44730;53.158;6.398;2022-12-10T00:08:58;45.30;;;23.67;;
58950;SDS011;44730;53.158;6.398;2022-12-10T00:11:28;45.90;;;23.40;;
58950;SDS011;44730;53.158;6.398;2022-12-10T00:13:54;44.38;;;26.73;;
58950;SDS011;44730;53.158;6.398;2022-12-10T00:16:21;45.65;;;24.65;;
58950;SDS011;44730;53.158;6.398;2022-12-10T00:18:49;46.72;;;25.75;;
58950;SDS011;44730;53.158;6.398;2022-12-10T00:21:16;47.00;;;25.63;;
58950;SDS011;44730;53.158;6.398;2022-12-10T00:23:44;51.05;;;25.52;;
58950;SDS011;44730;53.158;6.398;2022-12-10T00:26:11;45.85;;;25.98;;
58950;SDS011;44730;53.158;6.398;2022-12-10T00:28:42;49.58;;;24.90;;
58950;SDS011;44730;53.158;6.398;2022-12-10T00:31:10;47.50;;;25.65;;
58950;SDS011;44730;53.158;6.398;2022-12-10T00:33:37;47.50;;;26.35;;
58950;SDS011;44730;53.158;6.398;2022-12-10T00:36:07;45.13;;;23.83;;
58950;SDS011;44730;53.158;6.398;2022-12-10T00:38:38;46.33;;;24.58;;
58950;SDS011;44730;53.158;6.398;2022-12-10T00:41:05;49.03;;;26.92;;
58950;SDS011;44730;53.158;6.398;2022-12-10T00:43:31;49.92;;;24.20;;
58950;SDS011;44730;53.158;6.398;2022-12-10T00:45:57;47.30;;;26.88;;
58950;SDS011;44730;53.158;6.398;2022-12-10T00:48:23;49.97;;;26.88;;
58950;SDS011;44730;53.158;6.398;2022-12-10T00:51:02;48.70;;;25.52;;
58950;SDS011;44730;53.158;6.398;2022-12-10T00:53:30;47.05;;;26.02;;
58950;SDS011;44730;53.158;6.398;2022-12-10T00:55:57;50.67;;;27.63;;
58950;SDS011;44730;53.158;6.398;2022-12-10T00:58:26;55.25;;;27.65;;
58950;SDS011;44730;53.158;6.398;2022-12-10T01:00:54;49.17;;;26.63;;
58950;SDS011;44730;53.158;6.398;2022-12-10T01:03:30;46.85;;;25.83;;
58950;SDS011;44730;53.158;6.398;2022-12-10T01:05:56;50.05;;;27.77;;
58950;SDS011;44730;53.158;6.398;2022-12-10T01:08:22;52.58;;;27.23;;
58950;SDS011;44730;53.158;6.398;2022-12-10T01:10:52;52.70;;;28.83;;
58950;SDS011;44730;53.158;6.398;2022-12-10T01:13:18;52.28;;;27.40;;
58950;SDS011;44730;53.158;6.398;2022-12-10T01:15:44;49.58;;;27.10;;
58950;SDS011;44730;53.158;6.398;2022-12-10T01:18:09;53.95;;;27.95;;
58950;SDS011;44730;53.158;6.398;2022-12-10T01:20:35;50.58;;;26.92;;
58950;SDS011;44730;53.158;6.398;2022-12-10T01:23:02;47.83;;;27.98;;
58950;SDS011;44730;53.158;6.398;2022-12-10T01:25:28;47.75;;;26.70;;
58950;SDS011;44730;53.158;6.398;2022-12-10T01:27:53;49.78;;;26.83;;
58950;SDS011;44730;53.158;6.398;2022-12-10T01:30:19;51.17;;;28.20;;
58950;SDS011;44730;53.158;6.398;2022-12-10T01:32:45;49.88;;;26.83;;
58950;SDS011;44730;53.158;6.398;2022-12-10T01:35:10;47.75;;;26.45;;
58950;SDS011;44730;53.158;6.398;2022-12-10T01:37:36;50.47;;;27.25;;
58950;SDS011;44730;53.158;6.398;2022-12-10T01:40:02;53.70;;;27.63;;
58950;SDS011;44730;53.158;6.398;2022-12-10T01:42:28;53.05;;;27.75;;
58950;SDS011;44730;53.158;6.398;2022-12-10T01:44:57;51.58;;;26.38;;
58950;SDS011;44730;53.158;6.398;2022-12-10T01:47:25;45.65;;;25.95;;
58950;SDS011;44730;53.158;6.398;2022-12-10T01:49:50;51.03;;;27.27;;
58950;SDS011;44730;53.158;6.398;2022-12-10T01:52:16;50.20;;;25.38;;
58950;SDS011;44730;53.158;6.398;2022-12-10T01:54:44;51.97;;;26.65;;
58950;SDS011;44730;53.158;6.398;2022-12-10T01:57:18;54.17;;;27.38;;
58950;SDS011;44730;53.158;6.398;2022-12-10T01:59:50;51.33;;;26.70;;
58950;SDS011;44730;53.158;6.398;2022-12-10T02:05:07;50.88;;;25.40;;
58950;SDS011;44730;53.158;6.398;2022-12-10T02:07:58;51.60;;;28.40;;
58950;SDS011;44730;53.158;6.398;2022-12-10T02:15:51;53.83;;;26.88;;
58950;SDS011;44730;53.158;6.398;2022-12-10T02:18:28;55.40;;;26.80;;
58950;SDS011;44730;53.158;6.398;2022-12-10T02:21:24;53.88;;;26.65;;
58950;SDS011;44730;53.158;6.398;2022-12-10T02:23:59;51.78;;;26.15;;
58950;SDS011;44730;53.158;6.398;2022-12-10T02:26:41;54.88;;;28.35;;
58950;SDS011;44730;53.158;6.398;2022-12-10T02:29:20;61.13;;;29.35;;
58950;SDS011;44730;53.158;6.398;2022-12-10T02:31:50;57.78;;;29.05;;
58950;SDS011;44730;53.158;6.398;2022-12-10T02:34:19;51.47;;;28.38;;
58950;SDS011;44730;53.158;6.398;2022-12-10T02:36:47;55.33;;;28.75;;
58950;SDS011;44730;53.158;6.398;2022-12-10T02:39:18;53.63;;;28.38;;
58950;SDS011;44730;53.158;6.398;2022-12-10T02:41:51;52.97;;;28.40;;
58950;SDS011;44730;53.158;6.398;2022-12-10T02:44:18;48.35;;;26.17;;
58950;SDS011;44730;53.158;6.398;2022-12-10T02:46:47;53.67;;;29.90;;
58950;SDS011;44730;53.158;6.398;2022-12-10T02:49:17;54.72;;;29.73;;
58950;SDS011;44730;53.158;6.398;2022-12-10T02:51:43;54.05;;;29.17;;
58950;SDS011;44730;53.158;6.398;2022-12-10T02:57:09;50.70;;;27.25;;
58950;SDS011;44730;53.158;6.398;2022-12-10T02:59:59;57.58;;;28.40;;
58950;SDS011;44730;53.158;6.398;2022-12-10T03:05:15;51.08;;;27.98;;
58950;SDS011;44730;53.158;6.398;2022-12-10T03:08:08;54.63;;;28.58;;
58950;SDS011;44730;53.158;6.398;2022-12-10T03:13:15;55.35;;;28.27;;
58950;SDS011;44730;53.158;6.398;2022-12-10T03:15:44;53.00;;;29.27;;
58950;SDS011;44730;53.158;6.398;2022-12-10T03:18:12;56.38;;;29.58;;
58950;SDS011;44730;53.158;6.398;2022-12-10T03:20:42;53.30;;;28.70;;
58950;SDS011;44730;53.158;6.398;2022-12-10T03:23:12;57.50;;;28.63;;
58950;SDS011;44730;53.158;6.398;2022-12-10T03:25:41;58.22;;;29.27;;
58950;SDS011;44730;53.158;6.398;2022-12-10T03:28:08;57.17;;;28.42;;
58950;SDS011;44730;53.158;6.398;2022-12-10T03:30:34;60.67;;;30.30;;
58950;SDS011;44730;53.158;6.398;2022-12-10T03:33:02;54.90;;;29.73;;
58950;SDS011;44730;53.158;6.398;2022-12-10T03:35:29;57.00;;;28.30;;
58950;SDS011;44730;53.158;6.398;2022-12-10T03:37:56;55.72;;;28.60;;
58950;SDS011;44730;53.158;6.398;2022-12-10T03:40:22;53.50;;;29.15;;
58950;SDS011;44730;53.158;6.398;2022-12-10T03:42:49;51.08;;;27.75;;
58950;SDS011;44730;53.158;6.398;2022-12-10T03:45:15;61.90;;;29.80;;
58950;SDS011;44730;53.158;6.398;2022-12-10T03:47:41;58.00;;;30.40;;
58950;SDS011;44730;53.158;6.398;2022-12-10T03:50:08;64.22;;;30.70;;
58950;SDS011;44730;53.158;6.398;2022-12-10T03:52:34;52.22;;;28.75;;
58950;SDS011;44730;53.158;6.398;2022-12-10T03:55:00;61.05;;;30.70;;
58950;SDS011;44730;53.158;6.398;2022-12-10T03:57:26;59.10;;;30.95;;
58950;SDS011;44730;53.158;6.398;2022-12-10T03:59:52;64.55;;;32.38;;
58950;SDS011;44730;53.158;6.398;2022-12-10T04:02:17;57.70;;;30.27;;
58950;SDS011;44730;53.158;6.398;2022-12-10T04:04:43;60.78;;;32.08;;
58950;SDS011;44730;53.158;6.398;2022-12-10T04:07:09;57.47;;;30.23;;
58950;SDS011;44730;53.158;6.398;2022-12-10T04:09:35;57.42;;;30.35;;
58950;SDS011;44730;53.158;6.398;2022-12-10T04:12:00;62.78;;;31.65;;
58950;SDS011;44730;53.158;6.398;2022-12-10T04:14:26;59.63;;;29.75;;
58950;SDS011;44730;53.158;6.398;2022-12-10T04:17:11;57.08;;;31.20;;
58950;SDS011;44730;53.158;6.398;2022-12-10T04:19:37;57.63;;;31.15;;
58950;SDS011;44730;53.158;6.398;2022-12-10T04:22:03;57.33;;;30.70;;
58950;SDS011;44730;53.158;6.398;2022-12-10T04:24:48;60.10;;;30.75;;
58950;SDS011;44730;53.158;6.398;2022-12-10T04:27:36;62.50;;;29.93;;
58950;SDS011;44730;53.158;6.398;2022-12-10T04:30:04;67.25;;;34.25;;
58950;SDS011;44730;53.158;6.398;2022-12-10T04:32:31;70.53;;;33.67;;
58950;SDS011;44730;53.158;6.398;2022-12-10T04:34:58;60.92;;;31.33;;
58950;SDS011;44730;53.158;6.398;2022-12-10T04:37:24;75.32;;;35.50;;
58950;SDS011;44730;53.158;6.398;2022-12-10T04:39:51;64.53;;;33.53;;
58950;SDS011;44730;53.158;6.398;2022-12-10T04:42:17;68.82;;;34.67;;
58950;SDS011;44730;53.158;6.398;2022-12-10T04:44:44;79.53;;;35.55;;
58950;SDS011;44730;53.158;6.398;2022-12-10T04:47:12;71.32;;;34.85;;
58950;SDS011;44730;53.158;6.398;2022-12-10T04:49:38;68.85;;;34.05;;
58950;SDS011;44730;53.158;6.398;2022-12-10T04:52:07;70.15;;;36.45;;
58950;SDS011;44730;53.158;6.398;2022-12-10T04:54:41;82.55;;;37.28;;
58950;SDS011;44730;53.158;6.398;2022-12-10T04:57:10;68.07;;;35.50;;
58950;SDS011;44730;53.158;6.398;2022-12-10T04:59:38;75.10;;;35.53;;
58950;SDS011;44730;53.158;6.398;2022-12-10T05:02:04;68.97;;;34.08;;
58950;SDS011;44730;53.158;6.398;2022-12-10T05:04:33;81.35;;;39.85;;
58950;SDS011;44730;53.158;6.398;2022-12-10T05:07:04;82.60;;;39.20;;
58950;SDS011;44730;53.158;6.398;2022-12-10T05:09:30;91.15;;;40.45;;
58950;SDS011;44730;53.158;6.398;2022-12-10T05:11:56;82.18;;;40.60;;
58950;SDS011;44730;53.158;6.398;2022-12-10T05:14:22;92.75;;;42.08;;
58950;SDS011;44730;53.158;6.398;2022-12-10T05:20:03;93.73;;;43.00;;
58950;SDS011;44730;53.158;6.398;2022-12-10T05:22:54;77.63;;;37.13;;
58950;SDS011;44730;53.158;6.398;2022-12-10T05:25:38;83.93;;;40.22;;
58950;SDS011;44730;53.158;6.398;2022-12-10T05:28:21;76.45;;;38.45;;
58950;SDS011;44730;53.158;6.398;2022-12-10T05:30:48;95.18;;;42.78;;
58950;SDS011;44730;53.158;6.398;2022-12-10T05:33:14;166.02;;;47.80;;
58950;SDS011;44730;53.158;6.398;2022-12-10T05:35:40;118.22;;;44.95;;
58950;SDS011;44730;53.158;6.398;2022-12-10T05:38:14;108.07;;;47.22;;
58950;SDS011;44730;53.158;6.398;2022-12-10T05:40:42;106.65;;;43.80;;
58950;SDS011;44730;53.158;6.398;2022-12-10T05:43:08;144.43;;;47.03;;
58950;SDS011;44730;53.158;6.398;2022-12-10T05:45:36;106.10;;;42.00;;
58950;SDS011;44730;53.158;6.398;2022-12-10T05:48:02;128.13;;;46.40;;
58950;SDS011;44730;53.158;6.398;2022-12-10T05:50:31;86.40;;;40.40;;
58950;SDS011;44730;53.158;6.398;2022-12-10T05:53:00;114.63;;;45.15;;
58950;SDS011;44730;53.158;6.398;2022-12-10T05:55:26;114.10;;;42.78;;
58950;SDS011;44730;53.158;6.398;2022-12-10T05:57:54;104.35;;;40.50;;
58950;SDS011;44730;53.158;6.398;2022-12-10T06:00:30;156.70;;;41.85;;
58950;SDS011;44730;53.158;6.398;2022-12-10T06:02:59;246.88;;;54.80;;
58950;SDS011;44730;53.158;6.398;2022-12-10T06:05:27;142.75;;;44.60;;
58950;SDS011;44730;53.158;6.398;2022-12-10T06:07:53;181.65;;;47.08;;
58950;SDS011;44730;53.158;6.398;2022-12-10T06:10:25;160.93;;;48.60;;
58950;SDS011;44730;53.158;6.398;2022-12-10T06:12:54;171.20;;;48.90;;
58950;SDS011;44730;53.158;6.398;2022-12-10T06:15:22;130.70;;;39.47;;
58950;SDS011;44730;53.158;6.398;2022-12-10T06:17:48;170.70;;;48.90;;
58950;SDS011;44730;53.158;6.398;2022-12-10T06:20:16;127.90;;;42.90;;
58950;SDS011;44730;53.158;6.398;2022-12-10T06:22:45;162.70;;;50.28;;
58950;SDS011;44730;53.158;6.398;2022-12-10T06:25:11;164.07;;;45.65;;
58950;SDS011;44730;53.158;6.398;2022-12-10T06:27:46;142.65;;;45.67;;
58950;SDS011;44730;53.158;6.398;2022-12-10T06:30:15;179.30;;;48.33;;
58950;SDS011;44730;53.158;6.398;2022-12-10T06:32:41;245.30;;;52.38;;
58950;SDS011;44730;53.158;6.398;2022-12-10T06:35:10;172.77;;;46.88;;
58950;SDS011;44730;53.158;6.398;2022-12-10T06:37:36;175.23;;;47.08;;
58950;SDS011;44730;53.158;6.398;2022-12-10T06:40:05;142.05;;;43.33;;
58950;SDS011;44730;53.158;6.398;2022-12-10T06:42:31;105.57;;;38.90;;
58950;SDS011;44730;53.158;6.398;2022-12-10T06:45:02;256.88;;;55.80;;
58950;SDS011;44730;53.158;6.398;2022-12-10T06:47:31;148.65;;;41.17;;
58950;SDS011;44730;53.158;6.398;2022-12-10T06:49:57;119.95;;;44.05;;
58950;SDS011;44730;53.158;6.398;2022-12-10T06:52:25;118.03;;;41.83;;
58950;SDS011;44730;53.158;6.398;2022-12-10T06:54:51;209.63;;;46.65;;
58950;SDS011;44730;53.158;6.398;2022-12-10T06:57:16;204.02;;;51.17;;
58950;SDS011;44730;53.158;6.398;2022-12-10T06:59:43;146.57;;;41.47;;
58950;SDS011;44730;53.158;6.398;2022-12-10T07:02:11;136.38;;;39.95;;
58950;SDS011;44730;53.158;6.398;2022-12-10T07:04:36;223.50;;;53.90;;
58950;SDS011;44730;53.158;6.398;2022-12-10T07:07:02;132.00;;;46.72;;
58950;SDS011;44730;53.158;6.398;2022-12-10T07:09:28;183.25;;;43.28;;
58950;SDS011;44730;53.158;6.398;2022-12-10T07:11:54;180.48;;;45.38;;
58950;SDS011;44730;53.158;6.398;2022-12-10T07:14:19;158.25;;;44.17;;
58950;SDS011;44730;53.158;6.398;2022-12-10T07:16:45;161.45;;;41.28;;
58950;SDS011;44730;53.158;6.398;2022-12-10T07:19:11;160.98;;;42.95;;
58950;SDS011;44730;53.158;6.398;2022-12-10T07:21:39;194.73;;;48.15;;
58950;SDS011;44730;53.158;6.398;2022-12-10T07:24:11;164.38;;;40.75;;
58950;SDS011;44730;53.158;6.398;2022-12-10T07:26:40;153.25;;;42.85;;
58950;SDS011;44730;53.158;6.398;2022-12-10T07:29:08;173.50;;;41.65;;
58950;SDS011;44730;53.158;6.398;2022-12-10T07:31:37;112.85;;;33.03;;
58950;SDS011;44730;53.158;6.398;2022-12-10T07:34:03;121.90;;;34.17;;
58950;SDS011;44730;53.158;6.398;2022-12-10T07:36:31;189.15;;;43.45;;
58950;SDS011;44730;53.158;6.398;2022-12-10T07:38:56;166.77;;;37.80;;
58950;SDS011;44730;53.158;6.398;2022-12-10T07:41:23;176.43;;;43.30;;
58950;SDS011;44730;53.158;6.398;2022-12-10T07:43:49;157.43;;;44.25;;
58950;SDS011;44730;53.158;6.398;2022-12-10T07:46:20;96.03;;;34.58;;
58950;SDS011;44730;53.158;6.398;2022-12-10T07:48:51;228.77;;;50.65;;
58950;SDS011;44730;53.158;6.398;2022-12-10T07:51:18;205.75;;;44.20;;
58950;SDS011;44730;53.158;6.398;2022-12-10T07:53:50;115.53;;;35.00;;
58950;SDS011;44730;53.158;6.398;2022-12-10T07:56:16;139.30;;;40.47;;
58950;SDS011;44730;53.158;6.398;2022-12-10T07:58:43;162.27;;;41.58;;
58950;SDS011;44730;53.158;6.398;2022-12-10T08:01:13;110.82;;;35.67;;
58950;SDS011;44730;53.158;6.398;2022-12-10T08:03:40;186.48;;;44.45;;
58950;SDS011;44730;53.158;6.398;2022-12-10T08:06:10;111.82;;;40.65;;
58950;SDS011;44730;53.158;6.398;2022-12-10T08:08:38;147.77;;;39.67;;
58950;SDS011;44730;53.158;6.398;2022-12-10T08:11:05;134.70;;;39.00;;
58950;SDS011;44730;53.158;6.398;2022-12-10T08:13:31;85.80;;;38.67;;
58950;SDS011;44730;53.158;6.398;2022-12-10T08:16:04;124.35;;;39.00;;
58950;SDS011;44730;53.158;6.398;2022-12-10T08:18:32;136.68;;;44.72;;
58950;SDS011;44730;53.158;6.398;2022-12-10T08:21:02;153.02;;;43.83;;
58950;SDS011;44730;53.158;6.398;2022-12-10T08:23:29;175.93;;;45.20;;
58950;SDS011;44730;53.158;6.398;2022-12-10T08:25:55;191.23;;;47.38;;
58950;SDS011;44730;53.158;6.398;2022-12-10T08:28:21;156.90;;;45.08;;
58950;SDS011;44730;53.158;6.398;2022-12-10T08:30:47;93.93;;;36.42;;
58950;SDS011;44730;53.158;6.398;2022-12-10T08:33:13;117.20;;;37.25;;
58950;SDS011;44730;53.158;6.398;2022-12-10T08:35:39;196.45;;;44.70;;
58950;SDS011;44730;53.158;6.398;2022-12-10T08:38:07;119.85;;;42.55;;
58950;SDS011;44730;53.158;6.398;2022-12-10T08:40:38;125.38;;;36.00;;
58950;SDS011;44730;53.158;6.398;2022-12-10T08:43:05;122.80;;;40.13;;
58950;SDS011;44730;53.158;6.398;2022-12-10T08:45:31;169.23;;;43.80;;
58950;SDS011;44730;53.158;6.398;2022-12-10T08:47:57;112.05;;;38.22;;
58950;SDS011;44730;53.158;6.398;2022-12-10T08:50:23;117.93;;;38.25;;
58950;SDS011;44730;53.158;6.398;2022-12-10T08:52:48;114.00;;;37.20;;
58950;SDS011;44730;53.158;6.398;2022-12-10T08:55:14;149.93;;;43.92;;
58950;SDS011;44730;53.158;6.398;2022-12-10T08:57:43;185.80;;;44.45;;
58950;SDS011;44730;53.158;6.398;2022-12-10T09:00:09;192.82;;;46.72;;
58950;SDS011;44730;53.158;6.398;2022-12-10T09:02:38;152.40;;;40.50;;
58950;SDS011;44730;53.158;6.398;2022-12-10T09:05:04;133.60;;;39.63;;
58950;SDS011;44730;53.158;6.398;2022-12-10T09:07:31;169.43;;;40.60;;
58950;SDS011;44730;53.158;6.398;2022-12-10T09:09:57;91.20;;;30.23;;
58950;SDS011;44730;53.158;6.398;2022-12-10T09:12:25;131.40;;;38.22;;
58950;SDS011;44730;53.158;6.398;2022-12-10T09:14:51;108.07;;;33.15;;
58950;SDS011;44730;53.158;6.398;2022-12-10T09:17:21;183.65;;;40.15;;
58950;SDS011;44730;53.158;6.398;2022-12-10T09:19:46;143.85;;;43.65;;
58950;SDS011;44730;53.158;6.398;2022-12-10T09:22:12;113.57;;;37.25;;
58950;SDS011;44730;53.158;6.398;2022-12-10T09:24:41;150.30;;;37.38;;
58950;SDS011;44730;53.158;6.398;2022-12-10T09:27:06;184.07;;;42.85;;
58950;SDS011;44730;53.158;6.398;2022-12-10T09:29:32;161.38;;;44.60;;
58950;SDS011;44730;53.158;6.398;2022-12-10T09:31:58;108.90;;;32.25;;
58950;SDS011;44730;53.158;6.398;2022-12-10T09:34:24;120.82;;;35.63;;
58950;SDS011;44730;53.158;6.398;2022-12-10T09:36:50;106.18;;;33.15;;
58950;SDS011;44730;53.158;6.398;2022-12-10T09:39:15;88.97;;;30.38;;
58950;SDS011;44730;53.158;6.398;2022-12-10T09:51:45;109.15;;;31.35;;
58950;SDS011;44730;53.158;6.398;2022-12-10T09:56:57;52.38;;;24.02;;
58950;SDS011;44730;53.158;6.398;2022-12-10T09:59:31;90.32;;;32.97;;
58950;SDS011;44730;53.158;6.398;2022-12-10T10:02:10;76.35;;;29.23;;
58950;SDS011;44730;53.158;6.398;2022-12-10T10:04:48;104.28;;;30.48;;
58950;SDS011;44730;53.158;6.398;2022-12-10T10:07:26;83.43;;;30.35;;
58950;SDS011;44730;53.158;6.398;2022-12-10T10:09:56;84.20;;;32.08;;
58950;SDS011;44730;53.158;6.398;2022-12-10T10:12:31;97.78;;;30.60;;
58950;SDS011;44730;53.158;6.398;2022-12-10T10:14:59;101.10;;;30.98;;
58950;SDS011;44730;53.158;6.398;2022-12-10T10:17:35;108.00;;;33.08;;
58950;SDS011;44730;53.158;6.398;2022-12-10T10:20:03;85.57;;;31.10;;
58950;SDS011;44730;53.158;6.398;2022-12-10T10:22:29;85.55;;;30.80;;
58950;SDS011;44730;53.158;6.398;2022-12-10T10:24:56;68.35;;;28.77;;
58950;SDS011;44730;53.158;6.398;2022-12-10T10:27:24;67.53;;;29.50;;
58950;SDS011;44730;53.158;6.398;2022-12-10T10:29:53;127.47;;;34.38;;
58950;SDS011;44730;53.158;6.398;2022-12-10T10:35:00;71.28;;;32.90;;
58950;SDS011;44730;53.158;6.398;2022-12-10T10:37:27;70.22;;;32.13;;
58950;SDS011;44730;53.158;6.398;2022-12-10T10:41:02;93.30;;;31.40;;
58950;SDS011;44730;53.158;6.398;2022-12-10T10:43:41;83.07;;;28.75;;
58950;SDS011;44730;53.158;6.398;2022-12-10T10:46:14;104.15;;;30.23;;
58950;SDS011;44730;53.158;6.398;2022-12-10T10:48:47;86.13;;;31.23;;
58950;SDS011;44730;53.158;6.398;2022-12-10T10:53:42;73.45;;;26.73;;
58950;SDS011;44730;53.158;6.398;2022-12-10T10:59:52;92.57;;;31.95;;
58950;SDS011;44730;53.158;6.398;2022-12-10T11:02:37;89.90;;;28.60;;
58950;SDS011;44730;53.158;6.398;2022-12-10T11:08:24;82.05;;;32.67;;
58950;SDS011;44730;53.158;6.398;2022-12-10T11:11:05;98.30;;;39.33;;
58950;SDS011;44730;53.158;6.398;2022-12-10T11:13:39;60.38;;;29.02;;
58950;SDS011;44730;53.158;6.398;2022-12-10T11:23:57;107.68;;;29.77;;
58950;SDS011;44730;53.158;6.398;2022-12-10T11:35:32;69.38;;;27.02;;
58950;SDS011;44730;53.158;6.398;2022-12-10T11:50:43;86.68;;;56.45;;
58950;SDS011;44730;53.158;6.398;2022-12-10T11:56:28;59.17;;;27.10;;
58950;SDS011;44730;53.158;6.398;2022-12-10T11:59:16;86.88;;;27.67;;
58950;SDS011;44730;53.158;6.398;2022-12-10T12:02:26;57.97;;;29.48;;
58950;SDS011;44730;53.158;6.398;2022-12-10T12:07:48;60.60;;;26.33;;
58950;SDS011;44730;53.158;6.398;2022-12-10T12:13:35;62.92;;;26.35;;
58950;SDS011;44730;53.158;6.398;2022-12-10T12:16:16;66.00;;;28.00;;
58950;SDS011;44730;53.158;6.398;2022-12-10T12:19:00;73.90;;;29.17;;
58950;SDS011;44730;53.158;6.398;2022-12-10T12:21:39;63.85;;;29.15;;
58950;SDS011;44730;53.158;6.398;2022-12-10T12:24:34;55.83;;;26.95;;
58950;SDS011;44730;53.158;6.398;2022-12-10T12:27:09;83.38;;;29.02;;
58950;SDS011;44730;53.158;6.398;2022-12-10T12:32:33;48.97;;;24.02;;
58950;SDS011;44730;53.158;6.398;2022-12-10T12:35:08;56.10;;;26.52;;
58950;SDS011;44730;53.158;6.398;2022-12-10T12:42:58;43.08;;;19.38;;
58950;SDS011;44730;53.158;6.398;2022-12-10T12:45:31;41.72;;;20.02;;
58950;SDS011;44730;53.158;6.398;2022-12-10T12:48:01;38.28;;;19.02;;
58950;SDS011;44730;53.158;6.398;2022-12-10T12:53:24;38.85;;;19.90;;
58950;SDS011;44730;53.158;6.398;2022-12-10T13:00:57;43.58;;;18.95;;
58950;SDS011;44730;53.158;6.398;2022-12-10T13:03:45;32.05;;;16.67;;
58950;SDS011;44730;53.158;6.398;2022-12-10T13:06:18;38.90;;;18.75;;
58950;SDS011;44730;53.158;6.398;2022-12-10T13:11:36;42.03;;;22.38;;
58950;SDS011;44730;53.158;6.398;2022-12-10T13:19:16;35.85;;;20.35;;
58950;SDS011;44730;53.158;6.398;2022-12-10T13:24:20;30.75;;;18.85;;
58950;SDS011;44730;53.158;6.398;2022-12-10T13:29:57;35.30;;;19.55;;
58950;SDS011;44730;53.158;6.398;2022-12-10T13:37:37;42.35;;;22.27;;
58950;SDS011;44730;53.158;6.398;2022-12-10T13:48:58;65.32;;;20.20;;
58950;SDS011;44730;53.158;6.398;2022-12-10T14:03:02;49.10;;;28.58;;
58950;SDS011;44730;53.158;6.398;2022-12-10T14:08:29;37.22;;;20.17;;
58950;SDS011;44730;53.158;6.398;2022-12-10T14:10:58;41.10;;;22.77;;
58950;SDS011;44730;53.158;6.398;2022-12-10T14:13:31;49.45;;;22.42;;
58950;SDS011;44730;53.158;6.398;2022-12-10T14:16:00;50.42;;;22.58;;
58950;SDS011;44730;53.158;6.398;2022-12-10T14:18:27;50.58;;;30.42;;
58950;SDS011;44730;53.158;6.398;2022-12-10T14:20:57;48.28;;;22.98;;
58950;SDS011;44730;53.158;6.398;2022-12-10T14:23:28;41.55;;;20.88;;
58950;SDS011;44730;53.158;6.398;2022-12-10T14:25:58;43.10;;;21.23;;
58950;SDS011;44730;53.158;6.398;2022-12-10T14:28:32;40.60;;;21.70;;
58950;SDS011;44730;53.158;6.398;2022-12-10T14:31:02;45.78;;;22.13;;
58950;SDS011;44730;53.158;6.398;2022-12-10T14:33:31;46.88;;;23.48;;
58950;SDS011;44730;53.158;6.398;2022-12-10T14:35:56;46.00;;;23.42;;
58950;SDS011;44730;53.158;6.398;2022-12-10T14:38:25;41.15;;;22.27;;
58950;SDS011;44730;53.158;6.398;2022-12-10T14:40:55;55.83;;;24.98;;
58950;SDS011;44730;53.158;6.398;2022-12-10T14:43:22;48.08;;;23.58;;
58950;SDS011;44730;53.158;6.398;2022-12-10T14:45:56;45.63;;;21.95;;
58950;SDS011;44730;53.158;6.398;2022-12-10T14:48:24;56.47;;;25.05;;
58950;SDS011;44730;53.158;6.398;2022-12-10T14:50:50;47.47;;;23.35;;
58950;SDS011;44730;53.158;6.398;2022-12-10T14:53:18;44.92;;;22.45;;
58950;SDS011;44730;53.158;6.398;2022-12-10T14:55:48;54.63;;;24.27;;
58950;SDS011;44730;53.158;6.398;2022-12-10T14:58:20;57.35;;;22.65;;
58950;SDS011;44730;53.158;6.398;2022-12-10T15:00:52;46.38;;;23.08;;
58950;SDS011;44730;53.158;6.398;2022-12-10T15:03:28;73.43;;;26.77;;
58950;SDS011;44730;53.158;6.398;2022-12-10T15:05:58;62.28;;;24.83;;
58950;SDS011;44730;53.158;6.398;2022-12-10T15:08:27;68.50;;;24.08;;
58950;SDS011;44730;53.158;6.398;2022-12-10T15:10:57;69.68;;;27.95;;
58950;SDS011;44730;53.158;6.398;2022-12-10T15:13:33;44.97;;;22.98;;
58950;SDS011;44730;53.158;6.398;2022-12-10T15:16:04;47.05;;;21.58;;
58950;SDS011;44730;53.158;6.398;2022-12-10T15:18:36;47.55;;;22.50;;
58950;SDS011;44730;53.158;6.398;2022-12-10T15:21:14;51.95;;;24.20;;
58950;SDS011;44730;53.158;6.398;2022-12-10T15:23:43;76.03;;;32.90;;
58950;SDS011;44730;53.158;6.398;2022-12-10T15:26:28;57.13;;;25.58;;
58950;SDS011;44730;53.158;6.398;2022-12-10T15:31:55;78.20;;;34.25;;
58950;SDS011;44730;53.158;6.398;2022-12-10T15:34:49;75.93;;;32.45;;
58950;SDS011;44730;53.158;6.398;2022-12-10T15:37:24;72.15;;;33.67;;
58950;SDS011;44730;53.158;6.398;2022-12-10T15:40:02;78.05;;;27.67;;
58950;SDS011;44730;53.158;6.398;2022-12-10T15:42:38;59.70;;;24.58;;
58950;SDS011;44730;53.158;6.398;2022-12-10T15:45:12;62.85;;;24.02;;
58950;SDS011;44730;53.158;6.398;2022-12-10T15:47:52;56.83;;;22.80;;
58950;SDS011;44730;53.158;6.398;2022-12-10T15:50:21;39.78;;;19.90;;
58950;SDS011;44730;53.158;6.398;2022-12-10T15:52:47;60.60;;;23.73;;
58950;SDS011;44730;53.158;6.398;2022-12-10T15:55:19;70.95;;;23.67;;
58950;SDS011;44730;53.158;6.398;2022-12-10T15:57:45;95.60;;;27.88;;
58950;SDS011;44730;53.158;6.398;2022-12-10T16:04:12;51.40;;;22.52;;
58950;SDS011;44730;53.158;6.398;2022-12-10T16:06:41;54.78;;;19.00;;
58950;SDS011;44730;53.158;6.398;2022-12-10T16:09:10;46.75;;;20.73;;
58950;SDS011;44730;53.158;6.398;2022-12-10T16:11:36;53.40;;;21.60;;
58950;SDS011;44730;53.158;6.398;2022-12-10T16:14:11;40.83;;;24.10;;
58950;SDS011;44730;53.158;6.398;2022-12-10T16:16:38;50.67;;;24.58;;
58950;SDS011;44730;53.158;6.398;2022-12-10T16:19:12;43.72;;;20.98;;
58950;SDS011;44730;53.158;6.398;2022-12-10T16:21:40;38.95;;;20.90;;
58950;SDS011;44730;53.158;6.398;2022-12-10T16:24:10;46.15;;;25.02;;
58950;SDS011;44730;53.158;6.398;2022-12-10T16:26:44;47.55;;;21.73;;
58950;SDS011;44730;53.158;6.398;2022-12-10T16:29:33;45.83;;;22.20;;
58950;SDS011;44730;53.158;6.398;2022-12-10T16:32:02;43.40;;;20.15;;
58950;SDS011;44730;53.158;6.398;2022-12-10T16:34:30;46.80;;;20.92;;
58950;SDS011;44730;53.158;6.398;2022-12-10T16:37:08;52.40;;;21.27;;
58950;SDS011;44730;53.158;6.398;2022-12-10T16:39:42;49.20;;;20.92;;
58950;SDS011;44730;53.158;6.398;2022-12-10T16:42:26;48.20;;;22.65;;
58950;SDS011;44730;53.158;6.398;2022-12-10T16:44:57;51.47;;;20.83;;
58950;SDS011;44730;53.158;6.398;2022-12-10T16:47:34;41.72;;;19.25;;
58950;SDS011;44730;53.158;6.398;2022-12-10T16:50:05;40.30;;;19.67;;
58950;SDS011;44730;53.158;6.398;2022-12-10T16:52:37;45.17;;;19.27;;
58950;SDS011;44730;53.158;6.398;2022-12-10T16:55:07;46.50;;;19.35;;
58950;SDS011;44730;53.158;6.398;2022-12-10T16:57:39;53.95;;;19.20;;
58950;SDS011;44730;53.158;6.398;2022-12-10T17:00:15;45.83;;;19.90;;
58950;SDS011;44730;53.158;6.398;2022-12-10T17:02:45;46.33;;;17.85;;
58950;SDS011;44730;53.158;6.398;2022-12-10T17:05:27;64.63;;;22.83;;